Time;durP1;ratioP1;P1;durP2;ratioP2;P2;SDS_P1;SDS_P2;PMS_P1;PMS_P2;Temp;Humidity;BMP_temperature;BMP_pressure;BME280_temperature;BME280_humidity;BME280_pressure;Samples;Min_cycle;Max_cycle;Signal;HPM_P1;HPM_P2
2022/09/11 00:00:33;;;;;;;4.57;1.70;;;;;;;18.33;66.47;97795.69;8315979;28;20236;-79
2022/09/11 00:04:37;;;;;;;6.03;1.80;;;;;;;18.30;66.29;97795.91;8315845;28;20402;-78
2022/09/11 00:08:41;;;;;;;3.77;1.60;;;;;;;18.32;66.15;97794.00;8315840;28;20260;-77
2022/09/11 00:12:44;;;;;;;7.23;1.77;;;;;;;18.30;66.21;97789.84;8315490;28;20527;-78
2022/09/11 00:16:47;;;;;;;4.17;1.63;;;;;;;18.33;65.84;97793.06;8315213;28;20252;-75
2022/09/11 00:20:53;;;;;;;5.07;1.40;;;;;;;18.42;65.82;97790.66;8315248;28;20431;-78
2022/09/11 00:24:56;;;;;;;5.37;1.30;;;;;;;18.26;66.56;97791.00;8314588;28;20228;-77
2022/09/11 00:29:01;;;;;;;3.90;1.23;;;;;;;18.46;65.50;97787.66;8315053;28;20291;-77
2022/09/11 00:33:03;;;;;;;2.60;1.10;;;;;;;18.34;66.10;97789.47;8314834;28;20235;-78
2022/09/11 00:37:08;;;;;;;4.87;1.20;;;;;;;18.42;65.55;97786.25;8314874;28;20247;-77
2022/09/11 00:41:13;;;;;;;2.90;1.13;;;;;;;18.37;65.37;97791.00;8314876;28;20241;-78
2022/09/11 00:45:22;;;;;;;2.90;1.20;;;;;;;18.31;65.82;97786.25;8314945;28;20236;-79
2022/09/11 00:49:29;;;;;;;2.90;1.10;;;;;;;18.24;66.24;97791.16;8314753;28;20260;-78
2022/09/11 00:53:36;;;;;;;3.43;1.00;;;;;;;18.29;65.42;97791.59;8314886;28;20233;-78
2022/09/11 00:57:42;;;;;;;4.37;1.07;;;;;;;18.22;66.43;97790.44;8314981;28;20237;-79
2022/09/11 01:01:45;;;;;;;2.50;1.07;;;;;;;18.20;65.98;97784.50;8314934;28;20287;-78
2022/09/11 01:05:48;;;;;;;3.63;1.20;;;;;;;18.16;66.46;97785.66;8314407;28;20528;-78
2022/09/11 01:09:52;;;;;;;3.73;1.30;;;;;;;18.11;67.26;97785.22;8314354;28;20325;-77
2022/09/11 01:14:00;;;;;;;1.80;1.20;;;;;;;18.26;66.74;97783.16;8314624;28;20531;-78
2022/09/11 01:18:06;;;;;;;2.53;1.10;;;;;;;18.23;66.97;97781.63;8314720;28;20459;-78
2022/09/11 01:22:26;;;;;;;2.67;1.00;;;;;;;18.20;66.89;97786.25;8314302;28;20237;-78
2022/09/11 01:26:51;;;;;;;2.20;1.00;;;;;;;18.74;64.63;97772.34;8312914;28;20413;-78
2022/09/11 01:30:58;;;;;;;3.57;1.27;;;;;;;18.40;66.67;97782.09;8313667;28;20225;-78
2022/09/11 01:35:04;;;;;;;3.40;1.40;;;;;;;18.39;66.21;97767.28;8315735;28;20302;-78
2022/09/11 01:39:06;;;;;;;3.67;1.47;;;;;;;18.36;66.33;97777.06;8320311;28;20256;-78
2022/09/11 01:43:13;;;;;;;2.77;1.47;;;;;;;18.42;66.47;97772.31;8319943;28;20240;-78
2022/09/11 01:47:18;;;;;;;2.47;1.20;;;;;;;18.42;66.44;97762.66;8319950;28;20522;-77
2022/09/11 01:51:23;;;;;;;3.77;1.50;;;;;;;18.27;66.85;97764.69;8319878;28;20231;-78
2022/09/11 01:55:30;;;;;;;3.40;1.40;;;;;;;18.42;66.13;97756.56;8319794;28;20233;-79
2022/09/11 01:59:37;;;;;;;3.93;1.47;;;;;;;18.36;66.20;97760.50;8319776;28;20455;-78
2022/09/11 02:03:44;;;;;;;5.73;1.13;;;;;;;18.42;66.08;97752.16;8319371;28;20240;-78
2022/09/11 02:07:49;;;;;;;2.83;1.30;;;;;;;18.30;67.02;97766.25;8318985;28;20279;-79
2022/09/11 02:11:54;;;;;;;2.93;1.60;;;;;;;18.27;67.32;97769.09;8318597;28;20516;-78
2022/09/11 02:16:02;;;;;;;3.63;1.30;;;;;;;18.31;67.29;97753.00;8319219;28;20295;-79
2022/09/11 02:20:08;;;;;;;2.80;1.33;;;;;;;18.36;67.18;97750.84;8318852;28;20238;-78
2022/09/11 02:24:10;;;;;;;2.30;1.47;;;;;;;18.31;67.70;97752.19;8318739;28;20524;-78
2022/09/11 02:28:13;;;;;;;2.73;1.27;;;;;;;18.31;67.72;97755.63;8318622;28;20244;-78
2022/09/11 02:32:17;;;;;;;2.50;1.30;;;;;;;18.36;67.16;97748.22;8318787;28;20273;-78
2022/09/11 02:36:43;;;;;;;1.73;1.30;;;;;;;18.41;66.97;97753.13;8318495;28;20249;-78
2022/09/11 02:40:54;;;;;;;1.30;1.10;;;;;;;18.38;67.14;97752.53;8318327;28;20236;-78
2022/09/11 02:45:04;;;;;;;2.33;1.40;;;;;;;18.38;67.25;97742.06;8317469;28;20233;-78
2022/09/11 02:49:11;;;;;;;4.10;1.30;;;;;;;18.19;67.98;97753.16;8318155;28;20243;-79
2022/09/11 02:53:22;;;;;;;3.60;1.40;;;;;;;18.34;67.53;97750.16;8318025;28;20224;-78
2022/09/11 02:57:28;;;;;;;3.00;1.20;;;;;;;18.32;68.10;97751.22;8317947;28;20233;-78
2022/09/11 03:01:45;;;;;;;1.70;1.40;;;;;;;18.33;67.27;97755.50;8317912;28;20239;-78
2022/09/11 03:05:48;;;;;;;2.27;1.67;;;;;;;18.29;68.55;97761.94;8316588;28;20262;-78
2022/09/11 03:09:52;;;;;;;2.00;1.23;;;;;;;18.30;68.13;97761.00;8317456;28;20241;-78
2022/09/11 03:13:56;;;;;;;2.60;1.40;;;;;;;18.29;68.27;97765.41;8317121;28;20466;-78
2022/09/11 03:17:59;;;;;;;1.97;1.40;;;;;;;18.27;68.14;97772.56;8317299;28;20241;-78
2022/09/11 03:22:01;;;;;;;1.63;1.50;;;;;;;18.26;68.32;97772.66;8316936;28;20234;-78
2022/09/11 03:26:06;;;;;;;5.80;2.10;;;;;;;18.24;68.50;97774.56;8317098;28;20226;-78
2022/09/11 03:30:10;;;;;;;2.73;2.10;;;;;;;18.26;68.41;97777.91;8316653;28;20278;-78
2022/09/11 03:34:12;;;;;;;2.33;2.13;;;;;;;18.24;68.51;97775.44;8316929;28;20523;-78
2022/09/11 03:38:15;;;;;;;2.40;2.20;;;;;;;18.26;68.53;97773.53;8316894;28;20233;-78
2022/09/11 03:42:20;;;;;;;3.50;2.33;;;;;;;18.26;68.75;97780.53;8316868;28;20511;-78
2022/09/11 03:46:23;;;;;;;2.63;2.43;;;;;;;18.28;68.33;97783.88;8316678;28;20463;-78
2022/09/11 03:50:25;;;;;;;2.90;2.60;;;;;;;18.31;68.54;97784.47;8316467;28;20309;-78
2022/09/11 03:54:28;;;;;;;4.27;3.27;;;;;;;18.21;68.83;97782.69;8316387;28;20283;-78
2022/09/11 03:58:32;;;;;;;3.13;2.60;;;;;;;18.31;68.56;97787.06;8315563;28;20232;-78
2022/09/11 04:02:35;;;;;;;4.10;3.20;;;;;;;18.24;68.76;97790.31;8315880;28;20598;-78
2022/09/11 04:06:38;;;;;;;4.43;3.07;;;;;;;18.29;68.61;97789.00;8315559;28;20237;-78
2022/09/11 04:10:41;;;;;;;4.67;3.10;;;;;;;18.28;68.87;97800.44;8315444;28;20531;-79
2022/09/11 04:14:45;;;;;;;4.03;3.50;;;;;;;18.28;68.26;97791.75;8315665;28;20261;-79
2022/09/11 04:18:48;;;;;;;5.63;3.30;;;;;;;18.31;68.15;97800.19;8314997;28;20232;-78
2022/09/11 04:22:51;;;;;;;3.60;3.30;;;;;;;18.29;68.34;97807.34;8315385;28;20231;-78
2022/09/11 04:26:54;;;;;;;5.50;3.93;;;;;;;18.31;68.32;97810.66;8315334;28;20237;-79
2022/09/11 04:31:04;;;;;;;4.23;3.83;;;;;;;18.18;69.16;97804.72;8314936;28;20237;-78
2022/09/11 04:35:07;;;;;;;5.00;3.97;;;;;;;18.21;68.80;97814.97;8315141;28;27319;-78
2022/09/11 04:39:11;;;;;;;4.07;3.63;;;;;;;18.29;68.57;97819.63;8314929;28;20237;-78
2022/09/11 04:43:16;;;;;;;6.13;3.60;;;;;;;18.33;68.48;97814.03;8315049;28;20228;-78
2022/09/11 04:47:20;;;;;;;6.13;3.87;;;;;;;18.32;68.45;97822.00;8314702;28;20232;-78
2022/09/11 04:51:25;;;;;;;4.50;3.90;;;;;;;18.27;68.61;97832.84;8314809;28;20232;-79
2022/09/11 04:55:30;;;;;;;5.17;3.53;;;;;;;18.25;69.19;97831.31;8314456;28;20237;-78
2022/09/11 04:59:34;;;;;;;5.17;3.60;;;;;;;18.27;68.56;97838.06;8314668;28;20578;-79
2022/09/11 05:03:38;;;;;;;3.67;3.27;;;;;;;18.26;68.45;97844.28;8314040;28;20284;-79
2022/09/11 05:07:42;;;;;;;3.90;3.60;;;;;;;18.12;69.04;97850.56;8314346;28;20246;-79
2022/09/11 05:11:45;;;;;;;4.40;3.60;;;;;;;18.21;68.83;97850.84;8321234;28;20237;-78
2022/09/11 05:15:48;;;;;;;3.90;3.50;;;;;;;18.29;68.70;97846.66;8321012;28;20275;-78
2022/09/11 05:19:52;;;;;;;6.70;3.73;;;;;;;18.32;68.63;97853.47;8321044;28;20234;-78
2022/09/11 05:23:56;;;;;;;3.63;3.33;;;;;;;18.34;68.03;97852.38;8320941;28;20290;-80
2022/09/11 05:27:59;;;;;;;3.50;3.20;;;;;;;18.36;68.10;97860.13;8321018;28;20229;-79
2022/09/11 05:32:02;;;;;;;3.63;3.33;;;;;;;18.33;68.67;97863.84;8320487;28;20257;-79
2022/09/11 05:36:07;;;;;;;4.13;3.67;;;;;;;18.29;68.20;97872.03;8320489;28;20480;-80
2022/09/11 05:40:11;;;;;;;3.43;3.13;;;;;;;18.28;68.66;97880.88;8320452;28;20235;-77
2022/09/11 05:44:14;;;;;;;3.00;2.80;;;;;;;18.35;68.12;97888.16;8320510;28;20587;-77
2022/09/11 05:48:18;;;;;;;3.80;2.80;;;;;;;18.30;68.94;97898.13;8319927;28;20232;-77
2022/09/11 05:52:23;;;;;;;2.60;2.40;;;;;;;18.35;68.35;97906.50;8320178;28;20233;-77
2022/09/11 05:56:27;;;;;;;2.70;2.50;;;;;;;18.39;68.25;97909.72;8320077;28;20241;-77
2022/09/11 06:00:30;;;;;;;2.27;2.07;;;;;;;18.34;68.96;97915.28;8319861;28;20236;-78
2022/09/11 06:04:33;;;;;;;2.20;2.00;;;;;;;18.41;68.37;97922.69;8319414;28;20283;-77
2022/09/11 06:08:37;;;;;;;3.53;2.03;;;;;;;18.36;68.79;97925.66;8319602;28;20538;-77
2022/09/11 06:12:40;;;;;;;3.87;2.13;;;;;;;18.37;68.43;97932.56;8319263;28;20232;-77
2022/09/11 06:16:43;;;;;;;3.00;2.13;;;;;;;18.47;68.61;97946.66;8319224;28;20244;-78
2022/09/11 06:20:55;;;;;;;1.90;1.70;;;;;;;18.54;68.10;97947.00;8318622;28;20242;-77
2022/09/11 06:24:59;;;;;;;2.07;1.80;;;;;;;18.47;68.35;97954.53;8318778;28;20288;-79
2022/09/11 06:29:02;;;;;;;1.73;1.63;;;;;;;18.51;68.42;97953.34;8319083;28;20436;-78
2022/09/11 06:33:04;;;;;;;2.13;1.70;;;;;;;18.49;68.49;97959.66;8318777;28;20245;-78
2022/09/11 06:37:07;;;;;;;2.00;1.80;;;;;;;18.39;69.22;97963.91;8318775;28;20237;-78
2022/09/11 06:41:14;;;;;;;2.13;1.93;;;;;;;18.59;68.21;97973.72;8318175;28;20240;-78
2022/09/11 06:45:17;;;;;;;2.03;1.80;;;;;;;18.43;69.31;97973.22;8318435;28;20241;-78
2022/09/11 06:49:19;;;;;;;2.10;1.90;;;;;;;18.50;68.66;97977.03;8317925;28;20252;-78
2022/09/11 06:53:22;;;;;;;2.27;1.67;;;;;;;18.60;68.16;97987.66;8317977;28;20276;-85
2022/09/11 06:57:28;;;;;;;2.70;2.20;;;;;;;18.62;68.53;97983.97;8317712;28;20233;-79
2022/09/11 07:01:30;;;;;;;3.20;2.60;;;;;;;18.46;68.69;97989.53;8317534;28;20229;-77
2022/09/11 07:05:33;;;;;;;2.30;2.10;;;;;;;18.64;68.58;97996.94;8317642;28;20240;-77
2022/09/11 07:09:36;;;;;;;2.47;2.10;;;;;;;18.71;68.08;98003.41;8317234;28;20556;-78
2022/09/11 07:13:40;;;;;;;5.07;2.33;;;;;;;18.78;67.99;97999.38;8317465;28;20233;-78
2022/09/11 07:17:43;;;;;;;3.07;2.33;;;;;;;18.67;68.75;98007.22;8317251;28;20248;-78
2022/09/11 07:21:46;;;;;;;3.37;1.97;;;;;;;18.83;67.83;98010.38;8317099;28;20233;-77
2022/09/11 07:25:49;;;;;;;3.77;2.10;;;;;;;18.74;67.80;98011.88;8316456;28;20234;-77
2022/09/11 07:29:53;;;;;;;2.73;2.17;;;;;;;18.83;67.92;98014.75;8316652;28;20287;-79
2022/09/11 07:33:56;;;;;;;1.97;1.70;;;;;;;18.79;67.29;98019.41;8315821;28;20239;-77
2022/09/11 07:37:59;;;;;;;2.23;2.00;;;;;;;18.81;67.83;98021.91;8316619;28;20241;-77
2022/09/11 07:42:02;;;;;;;2.50;2.30;;;;;;;18.79;67.80;98029.91;8316385;28;20244;-77
2022/09/11 07:46:06;;;;;;;3.77;2.30;;;;;;;18.71;67.80;98037.50;8316449;28;20427;-78
2022/09/11 07:50:10;;;;;;;3.97;1.73;;;;;;;18.98;64.98;98052.09;8316305;28;20238;-80
2022/09/11 07:54:12;;;;;;;2.53;1.43;;;;;;;19.47;62.15;98056.13;8316173;28;20249;-81
2022/09/11 07:58:15;;;;;;;4.87;1.40;;;;;;;19.68;62.09;98053.59;8315772;28;20265;-83
2022/09/11 08:02:21;;;;;;;3.33;1.63;;;;;;;19.96;60.70;98061.91;8316025;28;20251;-81
2022/09/11 08:06:25;;;;;;;3.07;1.87;;;;;;;20.10;60.85;98064.25;8316038;28;20250;-80
2022/09/11 08:10:28;;;;;;;5.97;1.50;;;;;;;19.99;61.71;98062.50;8315957;28;20285;-82
2022/09/11 08:14:31;;;;;;;4.67;1.60;;;;;;;20.10;61.16;98069.50;8316211;28;20242;-82
2022/09/11 08:18:35;;;;;;;2.10;1.20;;;;;;;20.32;59.89;98065.94;8315874;28;20309;-81
2022/09/11 08:22:38;;;;;;;2.97;2.00;;;;;;;19.96;61.74;98085.56;8315370;28;20245;-82
2022/09/11 08:26:41;;;;;;;3.57;1.73;;;;;;;19.88;61.47;98087.00;8315394;28;20244;-82
2022/09/11 08:30:50;;;;;;;2.47;1.40;;;;;;;20.34;60.19;98092.94;8314882;28;20237;-82
2022/09/11 08:34:54;;;;;;;1.80;1.40;;;;;;;20.45;59.82;98092.06;8315110;28;20228;-81
2022/09/11 08:39:00;;;;;;;2.33;1.40;;;;;;;20.39;59.94;98093.41;8315047;28;20287;-81
2022/09/11 08:43:03;;;;;;;3.13;1.60;;;;;;;20.12;61.23;98107.00;8314798;28;20242;-81
2022/09/11 08:47:10;;;;;;;6.33;1.50;;;;;;;20.56;59.76;98099.06;8306522;28;20234;-82
2022/09/11 08:51:15;;;;;;;2.97;1.37;;;;;;;20.51;60.11;98104.72;8314853;28;20398;-80
2022/09/11 08:55:24;;;;;;;7.23;1.50;;;;;;;20.79;58.81;98111.16;8315201;28;20233;-81
2022/09/11 08:59:37;;;;;;;3.20;1.50;;;;;;;20.44;59.94;98122.78;8315121;28;20286;-81
2022/09/11 09:03:55;;;;;;;3.63;1.40;;;;;;;20.79;58.97;98118.22;8314947;28;20244;-81
2022/09/11 09:08:11;;;;;;;1.50;1.40;;;;;;;21.00;58.06;98116.41;8314726;28;20452;-81
2022/09/11 09:12:20;;;;;;;3.47;1.50;;;;;;;21.18;57.39;98121.06;8314909;28;20235;-82
2022/09/11 09:16:28;;;;;;;1.57;1.20;;;;;;;21.12;57.89;98126.88;8314772;28;20239;-81
2022/09/11 09:20:34;;;;;;;4.17;1.80;;;;;;;20.98;58.20;98126.25;8314723;28;20243;-83
2022/09/11 09:24:48;;;;;;;8.37;2.40;;;;;;;20.74;58.57;98126.50;8314892;28;20323;-85
2022/09/11 09:28:52;;;;;;;6.07;2.53;;;;;;;20.91;58.05;98119.00;8314586;28;20229;-83
2022/09/11 09:32:58;;;;;;;3.80;2.43;;;;;;;20.87;57.88;98129.78;8314634;28;20240;-84
2022/09/11 09:37:06;;;;;;;3.60;2.40;;;;;;;20.69;58.90;98128.66;8314890;28;20238;-84
2022/09/11 09:41:25;;;;;;;3.33;2.30;;;;;;;20.66;58.73;98128.94;8314368;28;20246;-87
2022/09/11 09:45:39;;;;;;;3.90;2.40;;;;;;;20.79;58.28;98129.59;8314435;28;20263;-83
2022/09/11 09:49:43;;;;;;;3.13;2.83;;;;;;;20.65;58.81;98140.41;8314086;28;20237;-84
2022/09/11 09:53:48;;;;;;;3.93;2.40;;;;;;;21.00;57.83;98136.63;8314164;28;20287;-83
2022/09/11 09:57:53;;;;;;;3.63;3.27;;;;;;;21.16;57.18;98136.19;8318284;28;20248;-83
2022/09/11 10:01:56;;;;;;;6.40;3.20;;;;;;;21.12;57.64;98135.59;8320052;28;20240;-84
2022/09/11 10:05:59;;;;;;;6.57;3.50;;;;;;;21.05;57.21;98134.44;8319987;28;20237;-86
2022/09/11 10:10:03;;;;;;;6.10;3.63;;;;;;;21.21;57.63;98123.44;8319807;28;20281;-85
2022/09/11 10:14:14;;;;;;;4.00;3.20;;;;;;;21.18;56.87;98127.16;8319400;28;20232;-84
2022/09/11 10:18:41;;;;;;;9.83;4.00;;;;;;;21.24;57.33;98120.53;8319294;28;20587;-91
2022/09/11 10:22:44;;;;;;;6.63;3.73;;;;;;;21.06;57.46;98126.41;8319381;28;20274;-80
2022/09/11 10:26:50;;;;;;;3.97;3.57;;;;;;;20.82;57.68;98128.50;8318723;28;20267;-81
2022/09/11 10:30:59;;;;;;;4.77;3.53;;;;;;;21.27;57.33;98128.19;8319179;28;20240;-78
2022/09/11 10:35:08;;;;;;;4.53;3.60;;;;;;;21.41;57.95;98130.47;8318632;28;20558;-79
2022/09/11 10:39:16;;;;;;;5.03;3.60;;;;;;;22.80;54.03;98124.31;8318590;28;20240;-79
2022/09/11 10:43:23;;;;;;;6.23;3.20;;;;;;;23.90;52.15;98125.47;8318130;28;20237;-78
2022/09/11 10:47:27;;;;;;;4.60;3.17;;;;;;;23.23;52.20;98130.09;8318495;28;20235;-77
2022/09/11 10:51:32;;;;;;;2.93;2.73;;;;;;;22.54;53.69;98129.34;8317777;28;20233;-78
2022/09/11 10:55:39;;;;;;;4.20;3.23;;;;;;;22.02;54.72;98139.28;8318045;28;20251;-78
2022/09/11 10:59:46;;;;;;;4.43;3.10;;;;;;;22.44;53.89;98134.59;8317983;28;20420;-79
2022/09/11 11:03:51;;;;;;;4.40;4.00;;;;;;;23.56;50.38;98133.16;8317120;28;20564;-79
2022/09/11 11:08:08;;;;;;;7.30;3.77;;;;;;;24.21;49.52;98138.38;8317626;28;20253;-78
2022/09/11 11:12:30;;;;;;;4.00;3.10;;;;;;;24.33;49.18;98146.91;8317350;28;20255;-77
2022/09/11 11:16:42;;;;;;;4.60;3.47;;;;;;;23.95;48.98;98146.19;8317349;28;20258;-78
2022/09/11 11:20:54;;;;;;;3.63;3.20;;;;;;;23.63;51.04;98136.88;8317031;28;20415;-79
2022/09/11 11:25:06;;;;;;;4.60;3.40;;;;;;;23.36;51.65;98135.88;8316524;28;20225;-76
2022/09/11 11:29:40;;;;;;;5.80;3.10;;;;;;;22.99;50.71;98141.91;8316678;28;20236;-77
2022/09/11 11:33:55;;;;;;;4.27;2.87;;;;;;;22.85;52.56;98145.03;8316558;28;20260;-78
2022/09/11 11:38:03;;;;;;;5.03;3.00;;;;;;;22.57;53.88;98150.16;8316324;28;20234;-76
2022/09/11 11:42:11;;;;;;;3.10;2.30;;;;;;;22.57;53.66;98152.81;8316200;28;20240;-76
2022/09/11 11:46:18;;;;;;;2.90;2.50;;;;;;;22.40;55.01;98148.22;8316328;28;20244;-76
2022/09/11 11:50:26;;;;;;;4.90;3.17;;;;;;;22.53;54.96;98153.25;8316163;28;20296;-77
2022/09/11 11:54:38;;;;;;;4.93;3.40;;;;;;;22.51;55.04;98157.81;8316070;28;20240;-76
2022/09/11 11:58:47;;;;;;;4.50;2.70;;;;;;;22.79;55.04;98151.69;8315963;28;20538;-74
2022/09/11 12:02:53;;;;;;;5.03;3.00;;;;;;;22.52;55.26;98162.13;8315520;28;20556;-75
2022/09/11 12:06:56;;;;;;;4.37;3.37;;;;;;;22.42;55.85;98155.03;8315584;28;20237;-75
2022/09/11 12:11:03;;;;;;;7.23;3.63;;;;;;;22.31;56.59;98157.78;8315356;28;20247;-75
2022/09/11 12:15:08;;;;;;;3.63;3.20;;;;;;;22.23;57.24;98157.63;8315312;28;20226;-76
2022/09/11 12:19:15;;;;;;;4.47;3.20;;;;;;;22.35;57.04;98158.34;8314827;28;20482;-74
2022/09/11 12:23:35;;;;;;;4.20;3.67;;;;;;;22.47;56.66;98167.81;8315241;28;20256;-77
2022/09/11 12:27:54;;;;;;;4.30;3.20;;;;;;;22.48;57.34;98166.84;8314971;28;20465;-75
2022/09/11 12:32:28;;;;;;;5.63;3.03;;;;;;;22.35;55.51;98163.63;8314566;28;20236;-75
2022/09/11 12:36:46;;;;;;;4.23;2.83;;;;;;;23.20;53.71;98157.59;8314826;28;20236;-76
2022/09/11 12:40:53;;;;;;;2.70;2.50;;;;;;;23.14;52.10;98160.00;8314266;28;20562;-75
2022/09/11 12:44:58;;;;;;;6.30;2.57;;;;;;;23.07;52.25;98164.19;8314875;28;20244;-76
2022/09/11 12:49:08;;;;;;;4.07;2.83;;;;;;;22.76;54.13;98167.81;8314797;28;20240;-76
2022/09/11 12:53:26;;;;;;;7.60;3.57;;;;;;;22.27;55.74;98166.13;8314575;28;20232;-76
2022/09/11 12:57:34;;;;;;;16.60;6.03;;;;;;;22.08;58.61;98164.25;8314787;28;20240;-77
2022/09/11 13:01:42;;;;;;;4.73;3.30;;;;;;;21.99;59.51;98160.63;8314835;28;20539;-78
2022/09/11 13:05:54;;;;;;;5.70;2.80;;;;;;;21.94;59.13;98168.13;8314541;28;20247;-77
2022/09/11 13:09:59;;;;;;;4.50;2.83;;;;;;;21.86;60.64;98160.91;8314534;28;20275;-77
2022/09/11 13:14:03;;;;;;;3.70;3.00;;;;;;;21.75;60.91;98161.81;8315785;28;20240;-79
2022/09/11 13:18:29;;;;;;;3.50;3.00;;;;;;;21.78;60.77;98161.56;8314296;28;20239;-77
2022/09/11 13:22:33;;;;;;;4.57;2.93;;;;;;;21.56;60.79;98156.50;8314813;28;20463;-76
2022/09/11 13:26:36;;;;;;;12.00;3.43;;;;;;;21.71;59.75;98157.78;8314300;28;20523;-77
2022/09/11 13:30:51;;;;;;;6.67;2.90;;;;;;;22.31;57.89;98152.53;8317438;28;20531;-77
2022/09/11 13:34:58;;;;;;;5.17;2.90;;;;;;;22.25;57.77;98145.16;8320054;28;20239;-75
2022/09/11 13:39:03;;;;;;;5.87;2.87;;;;;;;22.10;57.81;98144.69;8320347;28;20425;-75
2022/09/11 13:43:06;;;;;;;4.67;2.60;;;;;;;22.15;58.47;98150.41;8320215;28;20298;-75
2022/09/11 13:47:16;;;;;;;4.50;2.63;;;;;;;22.26;57.38;98152.13;8320251;28;20278;-76
2022/09/11 13:51:22;;;;;;;8.50;2.93;;;;;;;22.40;57.59;98150.88;8320115;28;20245;-78
2022/09/11 13:55:26;;;;;;;4.50;2.43;;;;;;;22.27;57.83;98147.66;8319865;28;20460;-76
2022/09/11 13:59:37;;;;;;;4.87;2.10;;;;;;;23.15;55.77;98149.31;8319957;28;20551;-75
2022/09/11 14:03:44;;;;;;;3.60;2.30;;;;;;;23.66;56.42;98141.03;8319460;28;20243;-75
2022/09/11 14:08:00;;;;;;;4.17;2.60;;;;;;;23.75;53.46;98146.25;8318974;28;20244;-73
2022/09/11 14:12:03;;;;;;;2.20;2.00;;;;;;;23.93;52.95;98134.94;8319441;28;20535;-75
2022/09/11 14:16:08;;;;;;;3.63;2.63;;;;;;;24.23;52.18;98135.56;8319375;28;20352;-75
2022/09/11 14:20:15;;;;;;;3.23;1.93;;;;;;;24.21;51.56;98130.44;8319138;28;20291;-75
2022/09/11 14:24:28;;;;;;;4.50;1.90;;;;;;;24.45;50.77;98131.66;8318879;28;20235;-75
2022/09/11 14:28:42;;;;;;;9.87;2.30;;;;;;;24.58;50.53;98121.53;8318821;28;20447;-74
2022/09/11 14:32:45;;;;;;;4.40;2.40;;;;;;;24.47;49.54;98125.22;8318491;28;20237;-74
2022/09/11 14:36:51;;;;;;;2.17;1.90;;;;;;;23.74;50.17;98125.25;8318479;28;20230;-76
2022/09/11 14:40:58;;;;;;;12.37;2.30;;;;;;;23.32;51.33;98116.00;8317675;28;20230;-75
2022/09/11 14:45:07;;;;;;;12.57;2.60;;;;;;;23.15;51.75;98122.03;8318131;28;20241;-73
2022/09/11 14:49:11;;;;;;;9.27;2.53;;;;;;;23.04;53.03;98112.50;8318273;28;20234;-76
2022/09/11 14:53:20;;;;;;;12.50;2.67;;;;;;;22.97;52.88;98119.28;8317901;28;20234;-76
2022/09/11 14:57:26;;;;;;;11.20;2.80;;;;;;;22.81;53.38;98125.16;8317951;28;20252;-77
2022/09/11 15:01:29;;;;;;;8.73;2.80;;;;;;;22.74;53.54;98113.50;8318013;28;20233;-75
2022/09/11 15:05:32;;;;;;;7.47;2.40;;;;;;;22.68;53.68;98117.53;8317602;28;20264;-76
2022/09/11 15:09:36;;;;;;;10.60;2.40;;;;;;;22.65;54.48;98113.34;8317731;28;20228;-76
2022/09/11 15:13:40;;;;;;;3.47;2.00;;;;;;;22.61;54.10;98111.13;8317278;28;20237;-75
2022/09/11 15:18:04;;;;;;;3.93;2.00;;;;;;;22.52;53.35;98109.34;8317172;28;20320;-75
2022/09/11 15:22:07;;;;;;;6.97;2.37;;;;;;;23.07;52.50;98111.34;8317320;28;20279;-75
2022/09/11 15:26:10;;;;;;;5.70;2.30;;;;;;;23.18;52.08;98114.66;8316845;28;20245;-77
2022/09/11 15:30:15;;;;;;;4.47;2.10;;;;;;;23.25;51.26;98103.50;8316813;28;20340;-76
2022/09/11 15:34:17;;;;;;;3.60;2.50;;;;;;;23.13;51.66;98105.50;8316714;28;20236;-76
2022/09/11 15:38:21;;;;;;;3.73;2.57;;;;;;;22.72;51.58;98104.88;8316785;28;20244;-78
2022/09/11 15:42:24;;;;;;;7.43;2.17;;;;;;;22.66;52.05;98095.72;8316585;28;20237;-76
2022/09/11 15:46:28;;;;;;;4.80;2.13;;;;;;;22.71;52.07;98092.66;8316663;28;20243;-76
2022/09/11 15:50:31;;;;;;;10.80;2.50;;;;;;;22.71;52.14;98100.56;8316186;28;20238;-74
2022/09/11 15:54:34;;;;;;;5.47;1.77;;;;;;;22.62;50.55;98097.00;8315138;28;20263;-75
2022/09/11 15:58:38;;;;;;;5.43;2.10;;;;;;;22.58;51.83;98091.16;8316118;28;20256;-76
2022/09/11 16:02:43;;;;;;;7.37;2.10;;;;;;;22.44;52.56;98105.59;8315912;28;20272;-74
2022/09/11 16:06:47;;;;;;;6.70;2.40;;;;;;;22.35;52.46;98089.75;8315667;28;20247;-75
2022/09/11 16:10:50;;;;;;;6.80;2.50;;;;;;;22.21;52.41;98105.00;8315317;28;20226;-74
2022/09/11 16:14:53;;;;;;;4.80;2.30;;;;;;;22.19;52.94;98096.41;8315386;28;20261;-75
2022/09/11 16:18:57;;;;;;;5.27;2.30;;;;;;;22.14;52.84;98096.00;8315645;28;20242;-75
2022/09/11 16:23:01;;;;;;;3.37;2.23;;;;;;;22.10;53.19;98097.22;8315210;28;20279;-75
2022/09/11 16:27:08;;;;;;;5.60;2.23;;;;;;;22.08;53.35;98090.44;8315180;28;20231;-78
2022/09/11 16:31:12;;;;;;;16.33;3.73;;;;;;;22.02;53.92;98102.34;8303865;28;20535;-77
2022/09/11 16:35:18;;;;;;;12.23;3.00;;;;;;;22.02;54.18;98099.72;8315163;28;20527;-78
2022/09/11 16:39:21;;;;;;;11.90;3.10;;;;;;;21.96;54.75;98101.09;8315284;28;20252;-79
2022/09/11 16:43:24;;;;;;;12.53;3.60;;;;;;;21.94;54.49;98100.41;8315022;28;20232;-78
2022/09/11 16:47:29;;;;;;;14.13;3.47;;;;;;;21.85;54.75;98101.22;8314959;28;20263;-79
2022/09/11 16:51:34;;;;;;;5.37;2.70;;;;;;;21.80;54.82;98104.28;8314754;28;20247;-80
2022/09/11 16:55:38;;;;;;;6.37;2.83;;;;;;;21.85;56.40;98102.03;8314921;28;20233;-80
2022/09/11 16:59:41;;;;;;;6.03;2.60;;;;;;;21.85;56.41;98102.03;8314968;28;20247;-79
2022/09/11 17:03:45;;;;;;;5.13;2.60;;;;;;;21.80;55.88;98103.41;8314813;28;20248;-80
2022/09/11 17:07:49;;;;;;;6.30;2.60;;;;;;;21.81;56.86;98098.00;8324970;28;20251;-78
2022/09/11 17:11:52;;;;;;;4.80;2.60;;;;;;;21.78;57.74;98098.31;8325354;28;20236;-79
2022/09/11 17:16:00;;;;;;;3.80;2.30;;;;;;;21.69;56.68;98093.84;8325272;28;20236;-79
2022/09/11 17:20:03;;;;;;;3.27;2.60;;;;;;;21.56;57.66;98099.34;8325658;28;20236;-77
2022/09/11 17:24:08;;;;;;;4.67;3.00;;;;;;;21.53;57.15;98093.50;8325348;28;20228;-80
2022/09/11 17:28:10;;;;;;;6.20;3.70;;;;;;;21.45;58.27;98102.09;8325165;28;20243;-79
2022/09/11 17:32:17;;;;;;;5.10;3.60;;;;;;;21.37;59.12;98099.25;8325316;28;20445;-79
2022/09/11 17:36:30;;;;;;;4.53;3.47;;;;;;;21.18;60.41;98090.31;8325144;28;20239;-80
2022/09/11 17:40:34;;;;;;;3.60;3.30;;;;;;;21.13;59.56;98097.75;8324883;28;20232;-78
2022/09/11 17:44:37;;;;;;;5.03;2.73;;;;;;;21.09;59.78;98105.09;8325083;28;20418;-77
2022/09/11 17:48:39;;;;;;;3.50;2.90;;;;;;;20.95;61.28;98100.16;8325300;28;20470;-78
2022/09/11 17:52:42;;;;;;;6.33;3.40;;;;;;;20.87;61.93;98106.09;8325228;28;20236;-79
2022/09/11 17:56:47;;;;;;;8.20;3.40;;;;;;;20.80;61.61;98107.56;8325070;28;20235;-79
2022/09/11 18:00:50;;;;;;;3.80;2.97;;;;;;;20.73;62.21;98118.72;8324117;28;20260;-77
2022/09/11 18:04:52;;;;;;;5.03;3.50;;;;;;;20.68;62.49;98117.31;8324854;28;20236;-79
2022/09/11 18:09:00;;;;;;;6.63;3.90;;;;;;;20.61;62.68;98133.75;8324999;28;20559;-82
2022/09/11 18:13:04;;;;;;;6.70;3.70;;;;;;;20.47;62.65;98129.59;8324800;28;20235;-77
2022/09/11 18:17:07;;;;;;;6.00;3.50;;;;;;;20.47;62.76;98132.22;8321050;28;20242;-80
2022/09/11 18:21:11;;;;;;;5.23;3.50;;;;;;;20.37;62.21;98132.16;8319523;28;20235;-80
2022/09/11 18:25:14;;;;;;;3.80;3.23;;;;;;;20.25;62.24;98133.97;8319324;28;20238;-79
2022/09/11 18:29:19;;;;;;;3.97;3.33;;;;;;;20.13;62.44;98134.97;8319154;28;20237;-82
2022/09/11 18:33:22;;;;;;;5.33;3.40;;;;;;;20.09;62.76;98138.81;8319041;28;20241;-78
2022/09/11 18:37:25;;;;;;;4.63;3.80;;;;;;;20.01;63.13;98136.81;8318823;28;20240;-78
2022/09/11 18:41:29;;;;;;;6.57;3.97;;;;;;;19.93;62.63;98136.56;8318663;28;20228;-78
2022/09/11 18:45:34;;;;;;;6.77;3.50;;;;;;;19.90;62.76;98147.34;8318797;28;20229;-78
2022/09/11 18:49:38;;;;;;;6.77;3.93;;;;;;;19.80;62.88;98157.75;8319100;28;20230;-78
2022/09/11 18:53:41;;;;;;;5.60;3.50;;;;;;;19.79;61.77;98148.19;8318505;28;20239;-78
2022/09/11 18:57:44;;;;;;;10.90;3.47;;;;;;;19.62;62.38;98148.66;8318515;28;20241;-77
2022/09/11 19:01:52;;;;;;;4.47;3.43;;;;;;;19.52;62.03;98149.38;8318008;28;20230;-78
2022/09/11 19:06:01;;;;;;;6.37;3.67;;;;;;;19.54;61.90;98157.13;8317702;28;20245;-78
2022/09/11 19:10:05;;;;;;;7.07;4.10;;;;;;;19.39;62.96;98153.09;8318128;28;20525;-78
2022/09/11 19:14:12;;;;;;;7.13;4.53;;;;;;;19.41;62.96;98159.88;8317465;28;20244;-79
2022/09/11 19:18:16;;;;;;;8.10;4.90;;;;;;;19.44;62.35;98156.16;8317844;28;20260;-75